sensor_id;sensor_type;location;lat;lon;timestamp;P1;durP1;ratioP1;P2;durP2;ratioP2
8913;SDS011;4492;48.736;9.092;2023-04-24T00:01:47;1.90;;;0.83;;
8913;SDS011;4492;48.736;9.092;2023-04-24T00:04:13;1.13;;;0.70;;
8913;SDS011;4492;48.736;9.092;2023-04-24T00:06:41;0.60;;;0.60;;
8913;SDS011;4492;48.736;9.092;2023-04-24T00:09:07;2.10;;;0.80;;
8913;SDS011;4492;48.736;9.092;2023-04-24T00:11:36;4.23;;;1.17;;
8913;SDS011;4492;48.736;9.092;2023-04-24T00:14:02;2.50;;;1.17;;
8913;SDS011;4492;48.736;9.092;2023-04-24T00:16:28;1.60;;;0.73;;
8913;SDS011;4492;48.736;9.092;2023-04-24T00:18:54;2.93;;;0.80;;
8913;SDS011;4492;48.736;9.092;2023-04-24T00:21:20;0.67;;;0.67;;
8913;SDS011;4492;48.736;9.092;2023-04-24T00:23:46;0.87;;;0.60;;
8913;SDS011;4492;48.736;9.092;2023-04-24T00:26:12;2.57;;;0.70;;
8913;SDS011;4492;48.736;9.092;2023-04-24T00:28:38;2.00;;;0.67;;
8913;SDS011;4492;48.736;9.092;2023-04-24T00:31:04;2.27;;;0.60;;
8913;SDS011;4492;48.736;9.092;2023-04-24T00:33:30;2.20;;;0.70;;
8913;SDS011;4492;48.736;9.092;2023-04-24T00:35:55;1.53;;;0.80;;
8913;SDS011;4492;48.736;9.092;2023-04-24T00:38:21;1.60;;;0.50;;
8913;SDS011;4492;48.736;9.092;2023-04-24T00:40:47;2.03;;;0.57;;
8913;SDS011;4492;48.736;9.092;2023-04-24T00:43:14;1.50;;;0.60;;
8913;SDS011;4492;48.736;9.092;2023-04-24T00:45:40;0.97;;;0.40;;
8913;SDS011;4492;48.736;9.092;2023-04-24T00:48:07;0.80;;;0.50;;
8913;SDS011;4492;48.736;9.092;2023-04-24T00:50:33;2.07;;;0.70;;
8913;SDS011;4492;48.736;9.092;2023-04-24T00:53:01;1.43;;;0.40;;
8913;SDS011;4492;48.736;9.092;2023-04-24T00:55:27;0.67;;;0.60;;
8913;SDS011;4492;48.736;9.092;2023-04-24T00:57:52;0.40;;;0.40;;
8913;SDS011;4492;48.736;9.092;2023-04-24T01:00:18;2.17;;;0.50;;
8913;SDS011;4492;48.736;9.092;2023-04-24T01:02:44;0.53;;;0.53;;
8913;SDS011;4492;48.736;9.092;2023-04-24T01:05:14;2.50;;;0.60;;
8913;SDS011;4492;48.736;9.092;2023-04-24T01:07:43;1.90;;;0.50;;
8913;SDS011;4492;48.736;9.092;2023-04-24T01:10:11;1.00;;;0.50;;
8913;SDS011;4492;48.736;9.092;2023-04-24T01:12:37;1.13;;;0.60;;
8913;SDS011;4492;48.736;9.092;2023-04-24T01:15:04;1.17;;;0.40;;
8913;SDS011;4492;48.736;9.092;2023-04-24T01:17:31;0.97;;;0.47;;
8913;SDS011;4492;48.736;9.092;2023-04-24T01:19:57;1.13;;;0.60;;
8913;SDS011;4492;48.736;9.092;2023-04-24T01:22:24;1.77;;;0.93;;
8913;SDS011;4492;48.736;9.092;2023-04-24T01:24:51;1.57;;;0.70;;
8913;SDS011;4492;48.736;9.092;2023-04-24T01:27:17;2.47;;;0.80;;
8913;SDS011;4492;48.736;9.092;2023-04-24T01:29:43;0.50;;;0.50;;
8913;SDS011;4492;48.736;9.092;2023-04-24T01:32:09;0.50;;;0.50;;
8913;SDS011;4492;48.736;9.092;2023-04-24T01:34:35;2.23;;;0.67;;
8913;SDS011;4492;48.736;9.092;2023-04-24T01:37:01;1.17;;;0.67;;
8913;SDS011;4492;48.736;9.092;2023-04-24T01:39:26;1.73;;;0.50;;
8913;SDS011;4492;48.736;9.092;2023-04-24T01:41:53;1.20;;;0.80;;
8913;SDS011;4492;48.736;9.092;2023-04-24T01:44:20;1.63;;;0.40;;
8913;SDS011;4492;48.736;9.092;2023-04-24T01:46:46;1.87;;;0.80;;
8913;SDS011;4492;48.736;9.092;2023-04-24T01:49:12;1.93;;;0.50;;
8913;SDS011;4492;48.736;9.092;2023-04-24T01:51:38;0.67;;;0.50;;
8913;SDS011;4492;48.736;9.092;2023-04-24T01:54:03;2.97;;;0.60;;
8913;SDS011;4492;48.736;9.092;2023-04-24T01:56:30;1.47;;;0.67;;
8913;SDS011;4492;48.736;9.092;2023-04-24T01:58:58;1.37;;;0.60;;
8913;SDS011;4492;48.736;9.092;2023-04-24T02:01:25;1.13;;;0.83;;
8913;SDS011;4492;48.736;9.092;2023-04-24T02:03:51;1.03;;;0.80;;
8913;SDS011;4492;48.736;9.092;2023-04-24T02:06:16;1.53;;;0.50;;
8913;SDS011;4492;48.736;9.092;2023-04-24T02:08:42;2.43;;;0.77;;
8913;SDS011;4492;48.736;9.092;2023-04-24T02:11:11;1.70;;;0.73;;
8913;SDS011;4492;48.736;9.092;2023-04-24T02:13:36;1.50;;;0.60;;
8913;SDS011;4492;48.736;9.092;2023-04-24T02:16:02;1.17;;;0.57;;
8913;SDS011;4492;48.736;9.092;2023-04-24T02:18:28;2.53;;;0.80;;
8913;SDS011;4492;48.736;9.092;2023-04-24T02:20:53;2.97;;;0.70;;
8913;SDS011;4492;48.736;9.092;2023-04-24T02:23:19;1.30;;;0.63;;
8913;SDS011;4492;48.736;9.092;2023-04-24T02:25:45;0.80;;;0.80;;
8913;SDS011;4492;48.736;9.092;2023-04-24T02:28:11;1.37;;;0.33;;
8913;SDS011;4492;48.736;9.092;2023-04-24T02:30:37;0.60;;;0.60;;
8913;SDS011;4492;48.736;9.092;2023-04-24T02:33:02;1.03;;;0.70;;
8913;SDS011;4492;48.736;9.092;2023-04-24T02:35:28;2.40;;;0.70;;
8913;SDS011;4492;48.736;9.092;2023-04-24T02:37:54;3.03;;;0.90;;
8913;SDS011;4492;48.736;9.092;2023-04-24T02:40:20;1.10;;;0.60;;
8913;SDS011;4492;48.736;9.092;2023-04-24T02:42:46;0.80;;;0.80;;
8913;SDS011;4492;48.736;9.092;2023-04-24T02:45:11;1.30;;;0.67;;
8913;SDS011;4492;48.736;9.092;2023-04-24T02:47:37;0.93;;;0.70;;
8913;SDS011;4492;48.736;9.092;2023-04-24T02:50:03;2.00;;;0.90;;
8913;SDS011;4492;48.736;9.092;2023-04-24T02:52:29;0.90;;;0.60;;
8913;SDS011;4492;48.736;9.092;2023-04-24T02:54:55;2.13;;;0.67;;
8913;SDS011;4492;48.736;9.092;2023-04-24T02:57:21;1.43;;;0.60;;
8913;SDS011;4492;48.736;9.092;2023-04-24T02:59:46;1.67;;;0.73;;
8913;SDS011;4492;48.736;9.092;2023-04-24T03:02:12;1.57;;;0.70;;
8913;SDS011;4492;48.736;9.092;2023-04-24T03:04:38;1.00;;;0.67;;
8913;SDS011;4492;48.736;9.092;2023-04-24T03:07:05;2.73;;;0.70;;
8913;SDS011;4492;48.736;9.092;2023-04-24T03:09:30;2.37;;;0.70;;
8913;SDS011;4492;48.736;9.092;2023-04-24T03:11:56;1.20;;;0.60;;
8913;SDS011;4492;48.736;9.092;2023-04-24T03:14:23;2.33;;;0.80;;
8913;SDS011;4492;48.736;9.092;2023-04-24T03:16:49;3.40;;;0.83;;
8913;SDS011;4492;48.736;9.092;2023-04-24T03:19:15;1.13;;;0.80;;
8913;SDS011;4492;48.736;9.092;2023-04-24T03:21:41;2.30;;;0.80;;
8913;SDS011;4492;48.736;9.092;2023-04-24T03:24:07;5.30;;;0.80;;
8913;SDS011;4492;48.736;9.092;2023-04-24T03:26:34;0.87;;;0.70;;
8913;SDS011;4492;48.736;9.092;2023-04-24T03:29:00;1.17;;;0.77;;
8913;SDS011;4492;48.736;9.092;2023-04-24T03:31:26;1.93;;;0.70;;
8913;SDS011;4492;48.736;9.092;2023-04-24T03:33:51;2.10;;;0.83;;
8913;SDS011;4492;48.736;9.092;2023-04-24T03:36:17;1.33;;;1.00;;
8913;SDS011;4492;48.736;9.092;2023-04-24T03:38:44;2.50;;;0.97;;
8913;SDS011;4492;48.736;9.092;2023-04-24T03:41:10;1.33;;;0.60;;
8913;SDS011;4492;48.736;9.092;2023-04-24T03:43:36;3.20;;;0.77;;
8913;SDS011;4492;48.736;9.092;2023-04-24T03:46:03;2.03;;;0.60;;
8913;SDS011;4492;48.736;9.092;2023-04-24T03:48:29;1.03;;;0.50;;
8913;SDS011;4492;48.736;9.092;2023-04-24T03:50:55;1.57;;;0.50;;
8913;SDS011;4492;48.736;9.092;2023-04-24T03:53:20;2.40;;;0.60;;
8913;SDS011;4492;48.736;9.092;2023-04-24T03:55:46;0.50;;;0.50;;
8913;SDS011;4492;48.736;9.092;2023-04-24T03:58:12;3.13;;;0.70;;
8913;SDS011;4492;48.736;9.092;2023-04-24T04:00:40;1.10;;;0.87;;
8913;SDS011;4492;48.736;9.092;2023-04-24T04:03:06;1.97;;;0.60;;
8913;SDS011;4492;48.736;9.092;2023-04-24T04:05:32;2.07;;;0.60;;
8913;SDS011;4492;48.736;9.092;2023-04-24T04:07:57;2.20;;;0.60;;
8913;SDS011;4492;48.736;9.092;2023-04-24T04:10:23;5.10;;;0.50;;
8913;SDS011;4492;48.736;9.092;2023-04-24T04:12:49;2.20;;;0.70;;
8913;SDS011;4492;48.736;9.092;2023-04-24T04:15:14;2.27;;;0.83;;
8913;SDS011;4492;48.736;9.092;2023-04-24T04:17:40;0.87;;;0.80;;
8913;SDS011;4492;48.736;9.092;2023-04-24T04:20:06;2.20;;;1.00;;
8913;SDS011;4492;48.736;9.092;2023-04-24T04:22:35;1.80;;;0.60;;
8913;SDS011;4492;48.736;9.092;2023-04-24T04:25:01;1.07;;;0.50;;
8913;SDS011;4492;48.736;9.092;2023-04-24T04:27:27;2.27;;;1.00;;
8913;SDS011;4492;48.736;9.092;2023-04-24T04:29:54;1.67;;;1.30;;
8913;SDS011;4492;48.736;9.092;2023-04-24T04:32:21;1.30;;;0.80;;
8913;SDS011;4492;48.736;9.092;2023-04-24T04:34:47;1.97;;;0.80;;
8913;SDS011;4492;48.736;9.092;2023-04-24T04:37:14;2.10;;;1.10;;
8913;SDS011;4492;48.736;9.092;2023-04-24T04:39:40;2.33;;;0.97;;
8913;SDS011;4492;48.736;9.092;2023-04-24T04:42:06;2.20;;;1.13;;
8913;SDS011;4492;48.736;9.092;2023-04-24T04:44:31;1.10;;;0.87;;
8913;SDS011;4492;48.736;9.092;2023-04-24T04:46:57;0.90;;;0.90;;
8913;SDS011;4492;48.736;9.092;2023-04-24T04:49:25;1.03;;;0.90;;
8913;SDS011;4492;48.736;9.092;2023-04-24T04:51:53;2.27;;;1.13;;
8913;SDS011;4492;48.736;9.092;2023-04-24T04:54:18;1.43;;;1.03;;
8913;SDS011;4492;48.736;9.092;2023-04-24T04:56:44;1.37;;;1.20;;
8913;SDS011;4492;48.736;9.092;2023-04-24T04:59:10;1.07;;;0.90;;
8913;SDS011;4492;48.736;9.092;2023-04-24T05:01:36;1.20;;;1.20;;
8913;SDS011;4492;48.736;9.092;2023-04-24T05:04:01;1.27;;;1.03;;
8913;SDS011;4492;48.736;9.092;2023-04-24T05:06:27;1.30;;;1.13;;
8913;SDS011;4492;48.736;9.092;2023-04-24T05:08:52;1.10;;;1.10;;
8913;SDS011;4492;48.736;9.092;2023-04-24T05:11:22;1.40;;;1.30;;
8913;SDS011;4492;48.736;9.092;2023-04-24T05:13:47;1.93;;;1.30;;
8913;SDS011;4492;48.736;9.092;2023-04-24T05:16:13;2.40;;;1.20;;
8913;SDS011;4492;48.736;9.092;2023-04-24T05:18:39;1.00;;;1.00;;
8913;SDS011;4492;48.736;9.092;2023-04-24T05:21:05;2.70;;;1.30;;
8913;SDS011;4492;48.736;9.092;2023-04-24T05:23:31;1.30;;;1.20;;
8913;SDS011;4492;48.736;9.092;2023-04-24T05:25:56;1.00;;;1.00;;
8913;SDS011;4492;48.736;9.092;2023-04-24T05:28:22;1.33;;;1.03;;
8913;SDS011;4492;48.736;9.092;2023-04-24T05:30:48;1.20;;;1.07;;
8913;SDS011;4492;48.736;9.092;2023-04-24T05:33:13;1.27;;;1.17;;
8913;SDS011;4492;48.736;9.092;2023-04-24T05:35:40;1.20;;;1.10;;
8913;SDS011;4492;48.736;9.092;2023-04-24T05:38:10;2.10;;;1.13;;
8913;SDS011;4492;48.736;9.092;2023-04-24T05:40:36;1.10;;;1.10;;
8913;SDS011;4492;48.736;9.092;2023-04-24T05:43:02;2.27;;;1.40;;
8913;SDS011;4492;48.736;9.092;2023-04-24T05:45:27;1.20;;;1.00;;
8913;SDS011;4492;48.736;9.092;2023-04-24T05:47:53;1.27;;;1.17;;
8913;SDS011;4492;48.736;9.092;2023-04-24T05:50:20;4.90;;;1.30;;
8913;SDS011;4492;48.736;9.092;2023-04-24T05:52:45;1.73;;;1.50;;
8913;SDS011;4492;48.736;9.092;2023-04-24T05:55:11;2.27;;;1.60;;
8913;SDS011;4492;48.736;9.092;2023-04-24T05:57:37;1.60;;;1.50;;
8913;SDS011;4492;48.736;9.092;2023-04-24T06:00:03;2.87;;;1.53;;
8913;SDS011;4492;48.736;9.092;2023-04-24T06:02:30;1.50;;;1.17;;
8913;SDS011;4492;48.736;9.092;2023-04-24T06:04:58;1.50;;;1.40;;
8913;SDS011;4492;48.736;9.092;2023-04-24T06:07:24;4.53;;;1.77;;
8913;SDS011;4492;48.736;9.092;2023-04-24T06:09:53;1.60;;;1.50;;
8913;SDS011;4492;48.736;9.092;2023-04-24T06:12:19;2.50;;;1.50;;
8913;SDS011;4492;48.736;9.092;2023-04-24T06:14:45;2.27;;;1.60;;
8913;SDS011;4492;48.736;9.092;2023-04-24T06:17:10;1.63;;;1.53;;
8913;SDS011;4492;48.736;9.092;2023-04-24T06:19:36;2.07;;;1.97;;
8913;SDS011;4492;48.736;9.092;2023-04-24T06:22:02;2.47;;;1.90;;
8913;SDS011;4492;48.736;9.092;2023-04-24T06:24:28;2.07;;;1.87;;
8913;SDS011;4492;48.736;9.092;2023-04-24T06:26:53;2.07;;;1.97;;
8913;SDS011;4492;48.736;9.092;2023-04-24T06:29:20;1.97;;;1.77;;
8913;SDS011;4492;48.736;9.092;2023-04-24T06:31:45;1.80;;;1.70;;
8913;SDS011;4492;48.736;9.092;2023-04-24T06:34:11;1.10;;;1.10;;
8913;SDS011;4492;48.736;9.092;2023-04-24T06:36:36;3.07;;;1.53;;
8913;SDS011;4492;48.736;9.092;2023-04-24T06:39:02;2.40;;;1.23;;
8913;SDS011;4492;48.736;9.092;2023-04-24T06:41:28;2.40;;;1.50;;
8913;SDS011;4492;48.736;9.092;2023-04-24T06:43:54;2.10;;;1.80;;
8913;SDS011;4492;48.736;9.092;2023-04-24T06:46:20;1.73;;;1.63;;
8913;SDS011;4492;48.736;9.092;2023-04-24T06:48:51;1.87;;;1.73;;
8913;SDS011;4492;48.736;9.092;2023-04-24T06:51:20;1.43;;;1.33;;
8913;SDS011;4492;48.736;9.092;2023-04-24T06:53:47;1.73;;;1.63;;
8913;SDS011;4492;48.736;9.092;2023-04-24T06:56:13;3.30;;;1.70;;
8913;SDS011;4492;48.736;9.092;2023-04-24T06:58:39;2.17;;;1.70;;
8913;SDS011;4492;48.736;9.092;2023-04-24T07:01:04;2.63;;;1.53;;
8913;SDS011;4492;48.736;9.092;2023-04-24T07:03:30;2.07;;;1.40;;
8913;SDS011;4492;48.736;9.092;2023-04-24T07:05:55;1.40;;;1.30;;
8913;SDS011;4492;48.736;9.092;2023-04-24T07:08:22;2.00;;;1.60;;
8913;SDS011;4492;48.736;9.092;2023-04-24T07:10:49;2.07;;;1.50;;
8913;SDS011;4492;48.736;9.092;2023-04-24T07:13:16;1.60;;;1.40;;
8913;SDS011;4492;48.736;9.092;2023-04-24T07:15:42;1.50;;;1.40;;
8913;SDS011;4492;48.736;9.092;2023-04-24T07:18:08;1.30;;;1.20;;
8913;SDS011;4492;48.736;9.092;2023-04-24T07:20:34;1.30;;;1.20;;
8913;SDS011;4492;48.736;9.092;2023-04-24T07:23:00;1.30;;;1.20;;
8913;SDS011;4492;48.736;9.092;2023-04-24T07:25:26;1.07;;;1.00;;
8913;SDS011;4492;48.736;9.092;2023-04-24T07:27:52;1.20;;;1.10;;
8913;SDS011;4492;48.736;9.092;2023-04-24T07:30:18;2.13;;;1.30;;
8913;SDS011;4492;48.736;9.092;2023-04-24T07:32:43;1.30;;;1.20;;
8913;SDS011;4492;48.736;9.092;2023-04-24T07:35:09;1.10;;;0.90;;
8913;SDS011;4492;48.736;9.092;2023-04-24T07:37:35;4.67;;;1.20;;
8913;SDS011;4492;48.736;9.092;2023-04-24T07:40:01;1.80;;;1.23;;
8913;SDS011;4492;48.736;9.092;2023-04-24T07:42:27;1.63;;;1.30;;
8913;SDS011;4492;48.736;9.092;2023-04-24T07:44:55;1.47;;;1.13;;
8913;SDS011;4492;48.736;9.092;2023-04-24T07:47:20;1.10;;;1.00;;
8913;SDS011;4492;48.736;9.092;2023-04-24T07:49:46;1.30;;;1.20;;
8913;SDS011;4492;48.736;9.092;2023-04-24T07:52:12;1.30;;;1.10;;
8913;SDS011;4492;48.736;9.092;2023-04-24T07:54:38;1.10;;;1.00;;
8913;SDS011;4492;48.736;9.092;2023-04-24T07:57:03;1.63;;;1.03;;
8913;SDS011;4492;48.736;9.092;2023-04-24T07:59:31;2.13;;;1.10;;
8913;SDS011;4492;48.736;9.092;2023-04-24T08:01:57;1.50;;;0.90;;
8913;SDS011;4492;48.736;9.092;2023-04-24T08:04:23;2.67;;;1.30;;
8913;SDS011;4492;48.736;9.092;2023-04-24T08:06:48;1.10;;;1.00;;
8913;SDS011;4492;48.736;9.092;2023-04-24T08:09:14;1.23;;;1.00;;
8913;SDS011;4492;48.736;9.092;2023-04-24T08:11:40;0.73;;;0.73;;
8913;SDS011;4492;48.736;9.092;2023-04-24T08:14:05;0.80;;;0.80;;
8913;SDS011;4492;48.736;9.092;2023-04-24T08:16:32;1.50;;;0.80;;
8913;SDS011;4492;48.736;9.092;2023-04-24T08:18:58;1.10;;;1.00;;
8913;SDS011;4492;48.736;9.092;2023-04-24T08:21:24;1.10;;;1.00;;
8913;SDS011;4492;48.736;9.092;2023-04-24T08:23:52;1.33;;;0.97;;
8913;SDS011;4492;48.736;9.092;2023-04-24T08:26:17;1.20;;;1.13;;
8913;SDS011;4492;48.736;9.092;2023-04-24T08:28:43;1.00;;;1.00;;
8913;SDS011;4492;48.736;9.092;2023-04-24T08:31:09;1.83;;;0.90;;
8913;SDS011;4492;48.736;9.092;2023-04-24T08:33:35;1.50;;;1.10;;
8913;SDS011;4492;48.736;9.092;2023-04-24T08:36:04;1.10;;;1.00;;
8913;SDS011;4492;48.736;9.092;2023-04-24T08:38:31;1.87;;;0.90;;
8913;SDS011;4492;48.736;9.092;2023-04-24T08:40:58;3.50;;;1.07;;
8913;SDS011;4492;48.736;9.092;2023-04-24T08:43:24;1.00;;;0.80;;
8913;SDS011;4492;48.736;9.092;2023-04-24T08:45:51;1.33;;;1.20;;
8913;SDS011;4492;48.736;9.092;2023-04-24T08:48:18;3.40;;;1.10;;
8913;SDS011;4492;48.736;9.092;2023-04-24T08:50:44;1.23;;;1.10;;
8913;SDS011;4492;48.736;9.092;2023-04-24T08:53:10;0.80;;;0.80;;
8913;SDS011;4492;48.736;9.092;2023-04-24T08:55:37;2.70;;;1.10;;
8913;SDS011;4492;48.736;9.092;2023-04-24T08:58:03;2.77;;;0.93;;
8913;SDS011;4492;48.736;9.092;2023-04-24T09:00:29;1.17;;;0.80;;
8913;SDS011;4492;48.736;9.092;2023-04-24T09:02:56;1.27;;;1.17;;
8913;SDS011;4492;48.736;9.092;2023-04-24T09:05:22;1.23;;;1.13;;
8913;SDS011;4492;48.736;9.092;2023-04-24T09:07:54;1.83;;;1.07;;
8913;SDS011;4492;48.736;9.092;2023-04-24T09:10:21;1.30;;;1.20;;
8913;SDS011;4492;48.736;9.092;2023-04-24T09:12:52;1.70;;;1.20;;
8913;SDS011;4492;48.736;9.092;2023-04-24T09:15:20;1.60;;;0.90;;
8913;SDS011;4492;48.736;9.092;2023-04-24T09:17:45;1.07;;;1.03;;
8913;SDS011;4492;48.736;9.092;2023-04-24T09:20:12;1.50;;;1.23;;
8913;SDS011;4492;48.736;9.092;2023-04-24T09:22:37;1.40;;;0.90;;
8913;SDS011;4492;48.736;9.092;2023-04-24T09:25:04;2.83;;;1.13;;
8913;SDS011;4492;48.736;9.092;2023-04-24T09:27:34;3.93;;;1.17;;
8913;SDS011;4492;48.736;9.092;2023-04-24T09:30:01;0.90;;;0.90;;
8913;SDS011;4492;48.736;9.092;2023-04-24T09:32:27;2.53;;;0.93;;
8913;SDS011;4492;48.736;9.092;2023-04-24T09:35:13;1.87;;;1.27;;
8913;SDS011;4492;48.736;9.092;2023-04-24T09:37:46;1.80;;;1.13;;
8913;SDS011;4492;48.736;9.092;2023-04-24T09:40:17;0.83;;;0.83;;
8913;SDS011;4492;48.736;9.092;2023-04-24T09:42:56;1.47;;;0.87;;
8913;SDS011;4492;48.736;9.092;2023-04-24T09:45:44;1.20;;;0.87;;
8913;SDS011;4492;48.736;9.092;2023-04-24T09:48:10;0.80;;;0.67;;
8913;SDS011;4492;48.736;9.092;2023-04-24T09:50:35;1.10;;;0.70;;
8913;SDS011;4492;48.736;9.092;2023-04-24T09:53:02;0.97;;;0.70;;
8913;SDS011;4492;48.736;9.092;2023-04-24T09:55:29;2.97;;;1.00;;
8913;SDS011;4492;48.736;9.092;2023-04-24T09:57:58;1.97;;;0.67;;
8913;SDS011;4492;48.736;9.092;2023-04-24T10:00:31;1.27;;;0.70;;
8913;SDS011;4492;48.736;9.092;2023-04-24T10:03:01;1.40;;;0.80;;
8913;SDS011;4492;48.736;9.092;2023-04-24T10:05:29;0.70;;;0.63;;
8913;SDS011;4492;48.736;9.092;2023-04-24T10:08:06;1.27;;;0.87;;
8913;SDS011;4492;48.736;9.092;2023-04-24T10:10:34;1.97;;;0.80;;
8913;SDS011;4492;48.736;9.092;2023-04-24T10:13:03;1.00;;;0.90;;
8913;SDS011;4492;48.736;9.092;2023-04-24T10:15:30;1.40;;;0.83;;
8913;SDS011;4492;48.736;9.092;2023-04-24T10:17:57;0.90;;;0.90;;
8913;SDS011;4492;48.736;9.092;2023-04-24T10:20:24;1.80;;;0.60;;
8913;SDS011;4492;48.736;9.092;2023-04-24T10:22:52;0.73;;;0.70;;
8913;SDS011;4492;48.736;9.092;2023-04-24T10:25:23;1.00;;;0.90;;
8913;SDS011;4492;48.736;9.092;2023-04-24T10:27:51;0.80;;;0.80;;
8913;SDS011;4492;48.736;9.092;2023-04-24T10:30:18;1.33;;;0.90;;
8913;SDS011;4492;48.736;9.092;2023-04-24T10:32:44;0.67;;;0.67;;
8913;SDS011;4492;48.736;9.092;2023-04-24T10:35:14;1.03;;;0.83;;
8913;SDS011;4492;48.736;9.092;2023-04-24T10:37:45;1.40;;;0.90;;
8913;SDS011;4492;48.736;9.092;2023-04-24T10:40:17;3.00;;;0.80;;
8913;SDS011;4492;48.736;9.092;2023-04-24T10:42:47;2.20;;;0.80;;
8913;SDS011;4492;48.736;9.092;2023-04-24T10:45:20;2.03;;;0.80;;
8913;SDS011;4492;48.736;9.092;2023-04-24T10:47:56;0.70;;;0.60;;
8913;SDS011;4492;48.736;9.092;2023-04-24T10:50:27;1.87;;;0.67;;
8913;SDS011;4492;48.736;9.092;2023-04-24T10:52:54;1.90;;;0.90;;
8913;SDS011;4492;48.736;9.092;2023-04-24T10:55:56;0.67;;;0.63;;
8913;SDS011;4492;48.736;9.092;2023-04-24T10:58:24;0.83;;;0.83;;
8913;SDS011;4492;48.736;9.092;2023-04-24T11:01:00;0.70;;;0.70;;
8913;SDS011;4492;48.736;9.092;2023-04-24T11:03:29;0.80;;;0.70;;
8913;SDS011;4492;48.736;9.092;2023-04-24T11:08:40;1.57;;;0.60;;
8913;SDS011;4492;48.736;9.092;2023-04-24T11:11:10;1.13;;;0.80;;
8913;SDS011;4492;48.736;9.092;2023-04-24T11:19:10;0.60;;;0.60;;
8913;SDS011;4492;48.736;9.092;2023-04-24T11:22:00;0.70;;;0.70;;
8913;SDS011;4492;48.736;9.092;2023-04-24T11:24:27;0.90;;;0.80;;
8913;SDS011;4492;48.736;9.092;2023-04-24T11:27:38;1.40;;;0.93;;
8913;SDS011;4492;48.736;9.092;2023-04-24T11:32:28;1.30;;;0.90;;
8913;SDS011;4492;48.736;9.092;2023-04-24T11:34:57;0.60;;;0.60;;
8913;SDS011;4492;48.736;9.092;2023-04-24T11:37:26;0.50;;;0.50;;
8913;SDS011;4492;48.736;9.092;2023-04-24T11:39:55;1.00;;;0.87;;
8913;SDS011;4492;48.736;9.092;2023-04-24T11:42:22;1.03;;;0.87;;
8913;SDS011;4492;48.736;9.092;2023-04-24T11:44:49;1.40;;;0.70;;
8913;SDS011;4492;48.736;9.092;2023-04-24T11:47:16;0.87;;;0.80;;
8913;SDS011;4492;48.736;9.092;2023-04-24T11:49:42;0.87;;;0.87;;
8913;SDS011;4492;48.736;9.092;2023-04-24T11:52:08;1.10;;;0.80;;
8913;SDS011;4492;48.736;9.092;2023-04-24T11:54:34;1.30;;;1.07;;
8913;SDS011;4492;48.736;9.092;2023-04-24T11:56:59;1.47;;;1.27;;
8913;SDS011;4492;48.736;9.092;2023-04-24T11:59:29;1.07;;;0.90;;
8913;SDS011;4492;48.736;9.092;2023-04-24T12:01:59;1.20;;;0.97;;
8913;SDS011;4492;48.736;9.092;2023-04-24T12:04:25;1.13;;;1.03;;
8913;SDS011;4492;48.736;9.092;2023-04-24T12:07:01;1.33;;;1.23;;
8913;SDS011;4492;48.736;9.092;2023-04-24T12:09:42;1.57;;;1.00;;
8913;SDS011;4492;48.736;9.092;2023-04-24T12:12:08;0.90;;;0.90;;
8913;SDS011;4492;48.736;9.092;2023-04-24T12:15:08;1.13;;;1.03;;
8913;SDS011;4492;48.736;9.092;2023-04-24T12:17:33;1.07;;;1.03;;
8913;SDS011;4492;48.736;9.092;2023-04-24T12:20:04;3.47;;;1.03;;
8913;SDS011;4492;48.736;9.092;2023-04-24T12:22:44;1.17;;;1.00;;
8913;SDS011;4492;48.736;9.092;2023-04-24T12:25:13;1.13;;;1.10;;
8913;SDS011;4492;48.736;9.092;2023-04-24T12:27:43;1.43;;;1.30;;
8913;SDS011;4492;48.736;9.092;2023-04-24T12:30:19;1.33;;;1.10;;
8913;SDS011;4492;48.736;9.092;2023-04-24T12:32:46;1.00;;;1.00;;
8913;SDS011;4492;48.736;9.092;2023-04-24T12:35:21;2.00;;;1.17;;
8913;SDS011;4492;48.736;9.092;2023-04-24T12:37:48;1.80;;;1.10;;
8913;SDS011;4492;48.736;9.092;2023-04-24T12:40:14;2.33;;;0.70;;
8913;SDS011;4492;48.736;9.092;2023-04-24T12:42:47;1.07;;;0.90;;
8913;SDS011;4492;48.736;9.092;2023-04-24T12:45:14;1.00;;;0.90;;
8913;SDS011;4492;48.736;9.092;2023-04-24T12:47:42;1.77;;;1.00;;
8913;SDS011;4492;48.736;9.092;2023-04-24T12:50:12;1.67;;;1.13;;
8913;SDS011;4492;48.736;9.092;2023-04-24T12:52:40;0.80;;;0.70;;
8913;SDS011;4492;48.736;9.092;2023-04-24T12:55:06;0.70;;;0.70;;
8913;SDS011;4492;48.736;9.092;2023-04-24T12:57:34;0.90;;;0.80;;
8913;SDS011;4492;48.736;9.092;2023-04-24T13:00:01;1.10;;;1.00;;
8913;SDS011;4492;48.736;9.092;2023-04-24T13:02:28;0.90;;;0.90;;
8913;SDS011;4492;48.736;9.092;2023-04-24T13:04:56;0.77;;;0.70;;
8913;SDS011;4492;48.736;9.092;2023-04-24T13:07:23;1.20;;;0.90;;
8913;SDS011;4492;48.736;9.092;2023-04-24T13:09:49;1.20;;;1.07;;
8913;SDS011;4492;48.736;9.092;2023-04-24T13:12:15;1.90;;;1.27;;
8913;SDS011;4492;48.736;9.092;2023-04-24T13:14:41;1.10;;;1.00;;
8913;SDS011;4492;48.736;9.092;2023-04-24T13:17:07;1.23;;;0.97;;
8913;SDS011;4492;48.736;9.092;2023-04-24T13:19:37;1.40;;;1.30;;
8913;SDS011;4492;48.736;9.092;2023-04-24T13:22:05;1.33;;;1.20;;
8913;SDS011;4492;48.736;9.092;2023-04-24T13:24:31;1.13;;;1.13;;
8913;SDS011;4492;48.736;9.092;2023-04-24T13:26:58;1.53;;;1.20;;
8913;SDS011;4492;48.736;9.092;2023-04-24T13:29:25;1.17;;;1.00;;
8913;SDS011;4492;48.736;9.092;2023-04-24T13:31:51;4.03;;;1.10;;
8913;SDS011;4492;48.736;9.092;2023-04-24T13:34:19;1.13;;;1.03;;
8913;SDS011;4492;48.736;9.092;2023-04-24T13:36:44;1.27;;;1.17;;
8913;SDS011;4492;48.736;9.092;2023-04-24T13:39:10;0.97;;;0.90;;
8913;SDS011;4492;48.736;9.092;2023-04-24T13:41:36;1.30;;;1.20;;
8913;SDS011;4492;48.736;9.092;2023-04-24T13:44:03;1.20;;;1.03;;
8913;SDS011;4492;48.736;9.092;2023-04-24T13:46:29;1.40;;;1.27;;
8913;SDS011;4492;48.736;9.092;2023-04-24T13:48:55;1.03;;;1.00;;
8913;SDS011;4492;48.736;9.092;2023-04-24T13:51:22;1.27;;;1.10;;
8913;SDS011;4492;48.736;9.092;2023-04-24T13:53:48;1.90;;;1.00;;
8913;SDS011;4492;48.736;9.092;2023-04-24T13:56:13;1.53;;;0.90;;
8913;SDS011;4492;48.736;9.092;2023-04-24T13:58:39;1.50;;;1.10;;
8913;SDS011;4492;48.736;9.092;2023-04-24T14:01:05;0.97;;;0.90;;
8913;SDS011;4492;48.736;9.092;2023-04-24T14:03:31;1.23;;;1.13;;
8913;SDS011;4492;48.736;9.092;2023-04-24T14:05:58;1.40;;;1.30;;
8913;SDS011;4492;48.736;9.092;2023-04-24T14:08:23;1.67;;;1.40;;
8913;SDS011;4492;48.736;9.092;2023-04-24T14:10:50;1.53;;;1.43;;
8913;SDS011;4492;48.736;9.092;2023-04-24T14:13:16;3.60;;;1.33;;
8913;SDS011;4492;48.736;9.092;2023-04-24T14:15:42;1.17;;;1.17;;
8913;SDS011;4492;48.736;9.092;2023-04-24T14:18:08;1.20;;;1.10;;
8913;SDS011;4492;48.736;9.092;2023-04-24T14:20:33;1.17;;;1.00;;
8913;SDS011;4492;48.736;9.092;2023-04-24T14:22:59;1.63;;;1.40;;
8913;SDS011;4492;48.736;9.092;2023-04-24T14:25:25;1.20;;;1.00;;
8913;SDS011;4492;48.736;9.092;2023-04-24T14:27:51;2.10;;;1.60;;
8913;SDS011;4492;48.736;9.092;2023-04-24T14:30:17;1.80;;;1.70;;
8913;SDS011;4492;48.736;9.092;2023-04-24T14:32:43;1.60;;;1.50;;
8913;SDS011;4492;48.736;9.092;2023-04-24T14:35:09;1.60;;;1.50;;
8913;SDS011;4492;48.736;9.092;2023-04-24T14:37:38;1.90;;;1.80;;
8913;SDS011;4492;48.736;9.092;2023-04-24T14:40:06;1.60;;;1.50;;
8913;SDS011;4492;48.736;9.092;2023-04-24T14:42:33;2.77;;;1.50;;
8913;SDS011;4492;48.736;9.092;2023-04-24T14:44:59;1.50;;;1.40;;
8913;SDS011;4492;48.736;9.092;2023-04-24T14:47:24;2.00;;;1.80;;
8913;SDS011;4492;48.736;9.092;2023-04-24T14:49:50;1.63;;;1.53;;
8913;SDS011;4492;48.736;9.092;2023-04-24T14:52:16;1.80;;;1.70;;
8913;SDS011;4492;48.736;9.092;2023-04-24T14:54:42;2.00;;;1.83;;
8913;SDS011;4492;48.736;9.092;2023-04-24T14:57:08;1.67;;;1.37;;
8913;SDS011;4492;48.736;9.092;2023-04-24T14:59:34;2.83;;;1.63;;
8913;SDS011;4492;48.736;9.092;2023-04-24T15:02:00;1.60;;;1.50;;
8913;SDS011;4492;48.736;9.092;2023-04-24T15:04:27;1.80;;;1.70;;
8913;SDS011;4492;48.736;9.092;2023-04-24T15:06:53;1.70;;;1.50;;
8913;SDS011;4492;48.736;9.092;2023-04-24T15:09:20;1.90;;;1.60;;
8913;SDS011;4492;48.736;9.092;2023-04-24T15:11:47;1.97;;;1.50;;
8913;SDS011;4492;48.736;9.092;2023-04-24T15:14:14;1.60;;;1.50;;
8913;SDS011;4492;48.736;9.092;2023-04-24T15:16:40;2.03;;;1.53;;
8913;SDS011;4492;48.736;9.092;2023-04-24T15:19:06;3.43;;;1.20;;
8913;SDS011;4492;48.736;9.092;2023-04-24T15:21:32;3.90;;;1.60;;
8913;SDS011;4492;48.736;9.092;2023-04-24T15:23:58;2.00;;;1.50;;
8913;SDS011;4492;48.736;9.092;2023-04-24T15:26:24;1.47;;;1.37;;